METAR - Iceland

Last updated 06.07.2020 - at. 13:26

SIGMET for the last six hours

No SIGMET messages last 6 hours.

METAR from the last three hours

AerodromeTimeMessage
BIAR2020-07-06 13.00METAR BIAR 061300Z 01006KT 9999 SCT015 BKN027 OVC047 08/05 Q1016 RMK WIND VADLAHEIDI 31309KT
BIAR2020-07-06 12.00METAR BIAR 061200Z 02004KT 360V060 9999 SCT015 BKN027 OVC047 07/04 Q1016 RMK WIND VADLAHEIDI 31309KT
BIAR2020-07-06 11.00METAR BIAR 061100Z VRB02KT 9999 SCT017 BKN026 07/04 Q1016 RMK WIND VADLAHEIDI 31911KT
BIBD2020-07-06 13.00METAR BIBD 061300Z 03006KT CAVOK 13/05 Q1015
BIBD2020-07-06 12.00METAR BIBD 061200Z 03006KT CAVOK 12/05 Q1015
BIBD2020-07-06 11.00METAR BIBD 061100Z 12002KT CAVOK 12/04 Q1015
BIEG2020-07-06 13.00METAR BIEG 061300Z 04004KT 9999 FEW020 SCT028 BKN044 09/05 Q1014
BIEG2020-07-06 12.00METAR BIEG 061200Z 02007KT 9999 FEW015 SCT024 BKN030 08/05 Q1014
BIEG2020-07-06 11.00METAR BIEG 061100Z VRB03KT 9999 FEW015 SCT023 BKN030 07/05 Q1014
BIGR2020-07-06 12.00METAR BIGR 061200Z 32009KT 9999 FEW010 OVC050 07/04 Q1016
BIGR2020-07-06 11.00METAR BIGR 061100Z 32009KT 9999 OVC008 06/04 Q1016
BIHN2020-07-06 13.00METAR BIHN 061300Z 31021KT 9999 SCT055 13/03 Q1013
BIHN2020-07-06 12.00METAR BIHN 061200Z 31019KT 9999 FEW050 FEW100 14/03 Q1013
BIHN2020-07-06 11.00METAR BIHN 061100Z 31014KT 9999 FEW050 FEW150 15/01 Q1012
BIHU2020-07-06 12.00METAR BIHU 061200Z 35011KT 9999 OVC008 07/05 Q1016
BIHU2020-07-06 11.00METAR BIHU 061100Z 35011KT 9999 BKN007 OVC025 06/05 Q1016
BIIS2020-07-06 13.00METAR BIIS 061300Z 02015KT CAVOK 10/03 Q1015
BIIS2020-07-06 12.00METAR BIIS 061200Z 02014KT CAVOK 10/03 Q1015
BIIS2020-07-06 10.47METAR BIIS 061047Z 04005KT CAVOK 10/02 Q1015
BIKF2020-07-06 13.00METAR BIKF 061300Z VRB02KT 9999 FEW028 SCT170 14/04 Q1014
BIKF2020-07-06 12.30METAR BIKF 061230Z 07004KT 360V110 CAVOK 14/04 Q1014
BIKF2020-07-06 12.00METAR BIKF 061200Z 05004KT 350V090 CAVOK 13/04 Q1014
BIKF2020-07-06 11.30METAR BIKF 061130Z 03007KT 360V070 CAVOK 12/05 Q1014
BIKF2020-07-06 11.00METAR BIKF 061100Z 03008KT 350V070 CAVOK 12/05 Q1014
BIKF2020-07-06 10.30METAR BIKF 061030Z 02008KT 350V050 CAVOK 12/05 Q1014
BIRK2020-07-06 13.00METAR BIRK 061300Z 33009KT CAVOK 15/03 Q1013
BIRK2020-07-06 12.00METAR BIRK 061200Z 35008KT CAVOK 15/04 Q1013
BIRK2020-07-06 11.00METAR BIRK 061100Z 35008KT CAVOK 14/03 Q1013
BITN2020-07-06 12.00METAR BITN 061200Z 32014KT 9999 OVC009 06/05 Q1014
BITN2020-07-06 11.00METAR BITN 061100Z 33014KT 9999 OVC007 06/05 Q1014
BIVM2020-07-06 13.12METAR BIVM 061312Z 14010KT 110V170 CAVOK 14/09 Q1013
BIVM2020-07-06 12.00METAR BIVM 061200Z 11010KT CAVOK 13/07 Q1012
BIVM2020-07-06 11.00METAR BIVM 061100Z 10008KT CAVOK 13/07 Q1012
BIVO2020-07-06 12.00METAR BIVO 061200Z 35010KT 9999 BKN025 10/04 Q1014
BIVO2020-07-06 11.00METAR BIVO 061100Z 35010KT 9999 BKN025 10/04 Q1014





Other related web sites


This website is built with Eplica CMS